createdAt,value
2018-07-03T00:00:38.767Z,2.00
2018-07-03T00:03:06.526Z,2.00
2018-07-03T00:05:34.338Z,2.00
2018-07-03T00:08:02.085Z,3.20
2018-07-03T00:10:29.879Z,2.00
2018-07-03T00:12:58.019Z,3.20
2018-07-03T00:15:25.883Z,1.00
2018-07-03T00:17:55.255Z,3.20
2018-07-03T00:20:23.012Z,2.00
2018-07-03T00:22:51.131Z,2.00
2018-07-03T00:25:18.916Z,2.00
2018-07-03T00:27:46.679Z,2.00
2018-07-03T00:30:14.428Z,2.00
2018-07-03T00:32:42.665Z,2.00
2018-07-03T00:35:10.397Z,2.00
2018-07-03T00:37:38.182Z,1.40
2018-07-03T00:40:05.966Z,1.40
2018-07-03T00:42:34.853Z,1.00
2018-07-03T00:45:02.617Z,1.00
2018-07-03T00:47:30.370Z,1.60
2018-07-03T00:49:58.666Z,1.40
2018-07-03T00:52:26.784Z,2.00
2018-07-03T00:54:54.517Z,1.00
2018-07-03T00:57:22.285Z,2.00
2018-07-03T00:59:50.041Z,2.00
2018-07-03T01:02:18.225Z,1.00
2018-07-03T01:04:45.979Z,1.00
2018-07-03T01:07:13.742Z,1.00
2018-07-03T01:09:42.099Z,0.40
2018-07-03T01:12:10.319Z,1.00
2018-07-03T01:14:38.733Z,2.00
2018-07-03T01:17:06.476Z,2.00
2018-07-03T01:19:35.405Z,2.00
2018-07-03T01:22:03.654Z,1.00
2018-07-03T01:24:31.444Z,1.40
2018-07-03T01:26:59.617Z,1.80
2018-07-03T01:29:27.592Z,1.00
2018-07-03T01:31:55.959Z,2.00
2018-07-03T01:34:23.717Z,1.00
2018-07-03T01:36:52.420Z,1.40
2018-07-03T01:39:23.902Z,1.00
2018-07-03T01:41:52.101Z,1.60
2018-07-03T01:44:19.874Z,1.00
2018-07-03T01:46:47.635Z,1.20
2018-07-03T01:49:15.397Z,2.00
2018-07-03T01:51:43.649Z,1.00
2018-07-03T01:54:11.397Z,2.00
2018-07-03T01:56:39.140Z,1.20
2018-07-03T01:59:07.356Z,1.00
2018-07-03T02:01:35.100Z,1.00
2018-07-03T02:04:02.891Z,1.40
2018-07-03T02:06:30.976Z,1.00
2018-07-03T02:08:58.726Z,2.00
2018-07-03T02:11:26.463Z,2.00
2018-07-03T02:13:54.251Z,1.60
2018-07-03T02:16:22.432Z,2.00
2018-07-03T02:18:50.215Z,2.00
2018-07-03T02:21:17.968Z,2.00
2018-07-03T02:23:45.741Z,2.00
2018-07-03T02:26:13.871Z,2.00
2018-07-03T02:28:41.631Z,3.60
2018-07-03T02:31:09.386Z,2.00
2018-07-03T02:33:37.500Z,2.00
2018-07-03T02:36:05.348Z,1.60
2018-07-03T02:38:33.102Z,2.20
2018-07-03T02:41:00.883Z,2.60
2018-07-03T02:43:28.959Z,3.20
2018-07-03T02:45:56.711Z,4.00
2018-07-03T02:48:24.479Z,2.20
2018-07-03T02:50:52.273Z,2.40
2018-07-03T02:53:20.315Z,2.20
2018-07-03T02:55:48.105Z,3.20
2018-07-03T02:58:15.844Z,4.00
2018-07-03T03:00:43.588Z,2.20
2018-07-03T03:03:11.709Z,3.00
2018-07-03T03:05:39.485Z,3.00
2018-07-03T03:08:07.250Z,3.00
2018-07-03T03:10:35.028Z,2.00
2018-07-03T03:13:03.241Z,3.20
2018-07-03T03:15:31.013Z,2.20
2018-07-03T03:17:58.843Z,2.60
2018-07-03T03:20:29.015Z,3.00
2018-07-03T03:22:56.762Z,2.80
2018-07-03T03:25:24.652Z,3.00
2018-07-03T03:27:52.411Z,3.40
2018-07-03T03:30:20.496Z,2.60
2018-07-03T03:32:49.077Z,3.00
2018-07-03T03:35:16.908Z,3.00
2018-07-03T03:37:45.100Z,3.00
2018-07-03T03:40:12.926Z,3.40
2018-07-03T03:42:40.683Z,2.20
2018-07-03T03:45:08.528Z,3.00
2018-07-03T03:47:36.570Z,3.00
2018-07-03T03:50:04.338Z,3.00
2018-07-03T03:52:32.075Z,4.00
2018-07-03T03:54:59.826Z,2.60
2018-07-03T03:57:28.048Z,4.00
2018-07-03T03:59:56.209Z,4.00
2018-07-03T04:02:24.795Z,3.00
2018-07-03T04:04:52.557Z,4.00
2018-07-03T04:07:20.309Z,4.00
2018-07-03T04:09:48.591Z,3.60
2018-07-03T04:12:16.680Z,3.00
2018-07-03T04:14:44.428Z,4.80
2018-07-03T04:17:13.992Z,4.00
2018-07-03T04:19:41.736Z,4.00
2018-07-03T04:22:10.407Z,4.40
2018-07-03T04:24:39.647Z,3.00
2018-07-03T04:27:07.731Z,4.00
2018-07-03T04:29:35.923Z,4.00
2018-07-03T04:32:04.612Z,4.00
2018-07-03T04:34:32.386Z,4.80
2018-07-03T04:37:00.476Z,4.00
2018-07-03T04:39:29.021Z,3.00
2018-07-03T04:41:56.785Z,3.40
2018-07-03T04:44:24.888Z,3.00
2018-07-03T04:46:52.719Z,4.00
2018-07-03T04:49:20.669Z,4.00
2018-07-03T04:51:48.904Z,4.20
2018-07-03T04:54:16.947Z,4.80
2018-07-03T04:56:44.735Z,2.80
2018-07-03T04:59:13.083Z,2.20
2018-07-03T05:01:40.945Z,4.00
2018-07-03T05:04:08.960Z,4.80
2018-07-03T05:06:36.730Z,2.20
2018-07-03T05:09:05.464Z,6.20
2018-07-03T05:11:33.696Z,4.80
2018-07-03T05:14:01.435Z,4.00
2018-07-03T05:16:29.903Z,2.20
2018-07-03T05:18:58.103Z,6.60
2018-07-03T05:21:25.856Z,5.00
2018-07-03T05:23:53.634Z,6.40
2018-07-03T05:26:22.624Z,7.00
2018-07-03T05:28:51.162Z,4.40
2018-07-03T05:31:18.961Z,5.00
2018-07-03T05:33:47.065Z,2.40
2018-07-03T05:36:15.854Z,3.60
2018-07-03T05:38:43.753Z,5.00
2018-07-03T05:41:12.079Z,5.00
2018-07-03T05:43:39.829Z,4.60
2018-07-03T05:46:07.579Z,6.20
2018-07-03T05:48:35.841Z,5.80
2018-07-03T05:51:03.665Z,4.00
2018-07-03T05:53:31.450Z,5.00
2018-07-03T05:55:59.591Z,5.40
2018-07-03T05:58:27.335Z,5.40
2018-07-03T06:00:57.438Z,4.00
2018-07-03T06:03:26.052Z,5.00
2018-07-03T06:05:53.816Z,5.80
2018-07-03T06:08:21.807Z,5.00
2018-07-03T06:10:50.590Z,4.00
2018-07-03T06:13:18.553Z,4.80
2018-07-03T06:15:46.405Z,4.00
2018-07-03T06:20:45.936Z,5.00
2018-07-03T06:23:13.724Z,3.00
2018-07-03T06:25:41.820Z,4.00
2018-07-03T06:28:09.611Z,4.60
2018-07-03T06:30:39.319Z,4.00
2018-07-03T06:33:07.447Z,4.20
2018-07-03T06:35:35.196Z,4.00
2018-07-03T06:38:02.960Z,4.20
2018-07-03T06:40:30.991Z,5.00
2018-07-03T06:42:58.754Z,2.00
2018-07-03T06:45:26.509Z,4.00
2018-07-03T06:47:54.719Z,4.20
2018-07-03T06:50:22.477Z,4.00
2018-07-03T06:52:50.255Z,2.00
2018-07-03T06:55:18.951Z,4.80
2018-07-03T06:57:46.756Z,2.00
2018-07-03T07:00:14.728Z,2.00
2018-07-03T07:02:42.770Z,9.00
2018-07-03T07:05:13.541Z,6.00
2018-07-03T07:07:51.278Z,6.00
2018-07-03T07:10:21.000Z,5.00
2018-07-03T07:12:48.757Z,4.00
2018-07-03T07:15:16.784Z,3.80
2018-07-03T07:17:46.176Z,3.80
2018-07-03T07:20:13.966Z,5.00
2018-07-03T07:22:41.712Z,3.20
2018-07-03T07:25:10.757Z,2.00
2018-07-03T07:27:38.492Z,3.20
2018-07-03T07:30:06.363Z,2.20
2018-07-03T07:32:34.392Z,3.00
2018-07-03T07:35:03.390Z,2.20
2018-07-03T07:37:31.712Z,2.00
2018-07-03T07:39:59.826Z,3.00
2018-07-03T07:42:27.872Z,3.00
2018-07-03T07:44:55.932Z,2.60
2018-07-03T07:47:25.169Z,2.80
2018-07-03T07:49:53.464Z,1.00
2018-07-03T07:52:21.204Z,2.40
2018-07-03T07:54:50.466Z,2.80
2018-07-03T07:57:18.450Z,4.60
2018-07-03T07:59:47.266Z,3.00
2018-07-03T08:02:16.460Z,2.00
2018-07-03T08:04:44.226Z,2.80
2018-07-03T08:07:13.602Z,3.00
2018-07-03T08:09:43.121Z,3.80
2018-07-03T08:12:11.039Z,3.80
2018-07-03T08:14:38.881Z,4.40
2018-07-03T08:17:06.927Z,4.00
2018-07-03T08:19:35.253Z,4.60
2018-07-03T08:22:05.594Z,4.80
2018-07-03T08:24:33.765Z,3.00
2018-07-03T08:27:01.641Z,3.40
2018-07-03T08:29:29.425Z,3.00
2018-07-03T08:31:57.470Z,3.00
2018-07-03T08:34:25.228Z,3.00
2018-07-03T08:36:53.009Z,3.00
2018-07-03T08:39:22.681Z,3.00
2018-07-03T08:41:50.486Z,3.00
2018-07-03T08:44:18.237Z,4.00
2018-07-03T08:46:47.413Z,3.00
2018-07-03T08:49:15.851Z,3.00
2018-07-03T08:51:43.799Z,3.00
2018-07-03T08:54:12.919Z,2.40
2018-07-03T08:56:42.034Z,3.00
2018-07-03T08:59:10.430Z,2.80
2018-07-03T09:01:39.353Z,3.80
2018-07-03T09:04:07.912Z,4.00
2018-07-03T09:06:35.665Z,3.00
2018-07-03T09:09:09.096Z,3.00
2018-07-03T09:11:36.902Z,3.80
2018-07-03T09:14:04.865Z,4.00
2018-07-03T09:16:34.648Z,3.00
2018-07-03T09:19:03.087Z,3.00
2018-07-03T09:21:30.813Z,3.00
2018-07-03T09:24:03.159Z,3.00
2018-07-03T09:26:35.933Z,3.00
2018-07-03T09:29:04.567Z,3.80
2018-07-03T09:31:32.396Z,4.00
2018-07-03T09:34:01.336Z,3.40
2018-07-03T09:36:30.647Z,3.00
2018-07-03T09:38:58.533Z,3.00
2018-07-03T09:41:27.815Z,3.60
2018-07-03T09:43:55.892Z,3.20
2018-07-03T09:46:24.513Z,3.80
2018-07-03T09:48:53.350Z,3.00
2018-07-03T09:51:22.113Z,2.60
2018-07-03T09:53:52.250Z,4.00
2018-07-03T09:56:20.030Z,4.00
2018-07-03T09:58:49.534Z,3.80
2018-07-03T10:01:22.836Z,3.40
2018-07-03T10:03:51.419Z,3.60
2018-07-03T10:06:24.103Z,4.00
2018-07-03T10:08:53.543Z,4.00
2018-07-03T10:11:21.856Z,4.60
2018-07-03T10:13:51.489Z,3.80
2018-07-03T10:16:20.063Z,4.00
2018-07-03T10:18:49.379Z,3.00
2018-07-03T10:21:21.244Z,4.20
2018-07-03T10:23:50.278Z,3.00
2018-07-03T10:26:18.137Z,5.00
2018-07-03T10:28:46.976Z,4.00
2018-07-03T10:31:15.047Z,3.60
2018-07-03T10:33:46.132Z,4.20
2018-07-03T10:36:14.663Z,4.00
2018-07-03T10:38:47.123Z,4.00
2018-07-03T10:41:15.718Z,3.20
2018-07-03T10:43:46.408Z,4.00
2018-07-03T10:46:14.306Z,3.80
2018-07-03T10:48:44.655Z,4.80
2018-07-03T10:51:14.376Z,4.20
2018-07-03T10:53:45.971Z,5.00
2018-07-03T10:56:15.332Z,4.00
2018-07-03T10:58:52.301Z,4.00
2018-07-03T11:01:20.893Z,4.00
2018-07-03T11:03:49.472Z,4.00
2018-07-03T11:06:18.560Z,4.00
2018-07-03T11:08:48.690Z,5.00
2018-07-03T11:11:17.301Z,5.00
2018-07-03T11:13:47.630Z,4.40
2018-07-03T11:16:18.442Z,4.00
2018-07-03T11:18:47.582Z,4.40
2018-07-03T11:21:16.738Z,3.40
2018-07-03T11:23:52.817Z,5.00
2018-07-03T11:26:20.959Z,4.60
2018-07-03T11:28:58.043Z,5.00
2018-07-03T11:31:25.840Z,4.20
2018-07-03T11:33:55.057Z,5.00
2018-07-03T11:36:23.391Z,5.00
2018-07-03T11:38:51.370Z,4.00
2018-07-03T11:41:19.214Z,5.00
2018-07-03T11:43:48.221Z,5.00
2018-07-03T11:46:16.630Z,5.40
2018-07-03T11:48:44.376Z,4.00
2018-07-03T11:51:12.634Z,4.80
2018-07-03T11:53:40.562Z,5.00
2018-07-03T11:56:09.344Z,5.00
2018-07-03T11:58:38.547Z,5.00
2018-07-03T12:01:07.102Z,4.20
2018-07-03T12:03:35.050Z,5.40
2018-07-03T12:06:04.458Z,6.00
2018-07-03T12:08:32.255Z,5.00
2018-07-03T12:11:00.021Z,5.00
2018-07-03T12:13:29.310Z,4.00
2018-07-03T12:15:57.968Z,5.00
2018-07-03T12:18:31.584Z,5.00
2018-07-03T12:21:00.387Z,5.00
2018-07-03T12:23:30.128Z,4.60
2018-07-03T12:28:35.528Z,5.60
2018-07-03T12:31:03.526Z,5.80
2018-07-03T12:33:31.780Z,5.00
2018-07-03T12:36:02.166Z,5.20
2018-07-03T12:38:29.955Z,6.00
2018-07-03T12:40:58.790Z,5.20
2018-07-03T12:43:26.826Z,4.80
2018-07-03T12:45:55.115Z,6.00
2018-07-03T12:48:31.779Z,5.00
2018-07-03T12:51:00.694Z,5.80
2018-07-03T12:53:28.465Z,6.00
2018-07-03T12:56:02.713Z,4.40
2018-07-03T12:58:30.542Z,4.00
2018-07-03T13:00:58.485Z,5.60
2018-07-03T13:03:31.438Z,5.00
2018-07-03T13:05:59.252Z,5.60
2018-07-03T13:08:28.630Z,4.80
2018-07-03T13:10:56.725Z,6.00
2018-07-03T13:13:25.508Z,5.20
2018-07-03T13:15:55.672Z,4.20
2018-07-03T13:18:24.908Z,4.20
2018-07-03T13:20:54.074Z,4.00
2018-07-03T13:23:21.886Z,5.80
2018-07-03T13:25:51.479Z,5.00
2018-07-03T13:28:19.336Z,4.80
2018-07-03T13:30:47.320Z,4.20
2018-07-03T13:33:15.361Z,5.00
2018-07-03T13:35:43.151Z,5.00
2018-07-03T13:38:10.944Z,5.60
2018-07-03T13:40:39.021Z,5.00
2018-07-03T13:43:07.387Z,6.00
2018-07-03T13:45:39.369Z,5.20
2018-07-03T13:48:09.511Z,6.40
2018-07-03T13:50:39.485Z,5.00
2018-07-03T13:53:07.279Z,6.00
2018-07-03T13:55:35.397Z,6.20
2018-07-03T13:58:03.252Z,4.80
2018-07-03T14:00:31.028Z,5.60
2018-07-03T14:02:59.985Z,4.40
2018-07-03T14:05:27.951Z,6.00
2018-07-03T14:07:55.707Z,5.00
2018-07-03T14:10:25.406Z,5.60
2018-07-03T14:12:54.503Z,5.00
2018-07-03T14:15:22.293Z,5.80
2018-07-03T14:17:55.582Z,6.00
2018-07-03T14:20:25.256Z,7.00
2018-07-03T14:22:56.330Z,7.00
2018-07-03T14:25:24.423Z,6.20
2018-07-03T14:27:52.384Z,6.00
2018-07-03T14:30:20.426Z,6.20
2018-07-03T14:32:51.625Z,6.00
2018-07-03T14:35:20.250Z,5.20
2018-07-03T14:37:48.540Z,5.20
2018-07-03T14:40:16.610Z,6.00
2018-07-03T14:42:44.640Z,5.00
2018-07-03T14:45:14.366Z,6.00
2018-07-03T14:47:42.537Z,5.00
2018-07-03T14:50:11.248Z,6.40
2018-07-03T14:52:43.267Z,6.00
2018-07-03T14:55:11.462Z,4.40
2018-07-03T14:57:39.252Z,5.00
2018-07-03T15:00:07.308Z,6.20
2018-07-03T15:02:35.392Z,5.60
2018-07-03T15:05:03.823Z,5.40
2018-07-03T15:07:31.577Z,5.00
2018-07-03T15:10:00.846Z,6.00
2018-07-03T15:12:29.554Z,5.60
2018-07-03T15:14:58.192Z,6.00
2018-07-03T15:17:26.453Z,6.00
2018-07-03T15:20:02.033Z,6.00
2018-07-03T15:22:30.460Z,6.00
2018-07-03T15:24:58.539Z,6.00
2018-07-03T15:27:31.299Z,5.00
2018-07-03T15:29:59.338Z,6.00
2018-07-03T15:32:29.170Z,6.20
2018-07-03T15:34:56.974Z,5.40
2018-07-03T15:37:25.260Z,5.20
2018-07-03T15:39:54.540Z,7.00
2018-07-03T15:42:23.829Z,6.00
2018-07-03T15:44:52.548Z,7.00
2018-07-03T15:47:21.452Z,6.40
2018-07-03T15:49:50.011Z,8.00
2018-07-03T15:52:17.823Z,5.60
2018-07-03T15:54:47.698Z,6.00
2018-07-03T15:57:15.476Z,7.80
2018-07-03T15:59:43.624Z,7.60
2018-07-03T16:02:11.744Z,5.20
2018-07-03T16:04:40.536Z,5.20
2018-07-03T16:07:09.490Z,5.40
2018-07-03T16:09:39.470Z,6.20
2018-07-03T16:12:08.652Z,5.60
2018-07-03T16:14:37.494Z,7.00
2018-07-03T16:17:10.180Z,5.40
2018-07-03T16:20:46.050Z,6.20
2018-07-03T16:23:20.455Z,7.00
2018-07-03T16:25:48.329Z,7.60
2018-07-03T16:28:16.128Z,6.80
2018-07-03T16:30:44.354Z,6.60
2018-07-03T16:33:13.111Z,6.20
2018-07-03T16:35:42.306Z,6.60
2018-07-03T16:38:11.286Z,6.60
2018-07-03T16:40:39.332Z,6.00
2018-07-03T16:43:07.294Z,7.00
2018-07-03T16:45:35.399Z,6.00
2018-07-03T16:48:03.243Z,6.00
2018-07-03T16:50:31.803Z,7.40
2018-07-03T16:53:00.804Z,5.80
2018-07-03T16:57:59.269Z,4.40
2018-07-03T17:00:29.213Z,4.80
2018-07-03T17:02:57.335Z,6.60
2018-07-03T17:05:25.653Z,6.00
2018-07-03T17:07:53.814Z,6.00
2018-07-03T17:10:21.597Z,6.60
2018-07-03T17:12:50.563Z,7.40
2018-07-03T17:15:18.866Z,6.00
2018-07-03T17:17:47.722Z,6.00
2018-07-03T17:20:15.708Z,7.40
2018-07-03T17:22:44.571Z,5.00
2018-07-03T17:25:12.395Z,6.00
2018-07-03T17:27:41.868Z,6.40
2018-07-03T17:30:10.338Z,6.20
2018-07-03T17:32:39.052Z,6.80
2018-07-03T17:35:07.378Z,6.20
2018-07-03T17:37:35.675Z,6.00
2018-07-03T17:40:03.468Z,6.00
2018-07-03T17:42:32.395Z,6.00
2018-07-03T17:45:00.734Z,5.80
2018-07-03T17:47:28.575Z,5.20
2018-07-03T17:50:00.213Z,7.00
2018-07-03T17:52:28.369Z,7.00
2018-07-03T17:54:56.939Z,5.40
2018-07-03T17:57:24.787Z,5.00
2018-07-03T17:59:54.053Z,5.60
2018-07-03T18:02:22.239Z,5.20
2018-07-03T18:04:51.621Z,6.00
2018-07-03T18:07:19.895Z,7.20
2018-07-03T18:09:52.315Z,6.20
2018-07-03T18:12:20.755Z,7.00
2018-07-03T18:14:49.660Z,6.00
2018-07-03T18:17:17.483Z,6.00
2018-07-03T18:19:46.317Z,7.00
2018-07-03T18:22:19.437Z,6.00
2018-07-03T18:24:47.224Z,7.00
2018-07-03T18:27:16.712Z,6.80
2018-07-03T18:29:45.390Z,5.40
2018-07-03T18:32:15.296Z,5.80
2018-07-03T18:34:44.072Z,6.80
2018-07-03T18:37:15.301Z,5.00
2018-07-03T18:39:43.993Z,4.80
2018-07-03T18:42:12.561Z,5.60
2018-07-03T18:44:41.674Z,7.00
2018-07-03T18:47:10.474Z,6.00
2018-07-03T18:49:40.165Z,6.40
2018-07-03T18:52:08.593Z,5.00
2018-07-03T18:54:37.899Z,6.00
2018-07-03T18:57:10.752Z,5.00
2018-07-03T18:59:39.055Z,6.00
2018-07-03T19:02:07.591Z,5.20
2018-07-03T19:04:36.383Z,5.60
2018-07-03T19:07:05.375Z,6.00
2018-07-03T19:09:33.343Z,6.20
2018-07-03T19:12:05.299Z,6.00
2018-07-03T19:14:33.510Z,4.00
2018-07-03T19:17:01.332Z,5.00
2018-07-03T19:19:30.542Z,6.20
2018-07-03T19:22:02.237Z,7.00
2018-07-03T19:24:32.157Z,6.20
2018-07-03T19:27:00.067Z,6.60
2018-07-03T19:29:28.247Z,6.40
2018-07-03T19:31:57.041Z,6.80
2018-07-03T19:34:24.911Z,6.00
2018-07-03T19:36:53.217Z,6.00
2018-07-03T19:39:22.443Z,6.80
2018-07-03T19:41:54.015Z,7.80
2018-07-03T19:44:23.687Z,7.20
2018-07-03T19:46:51.839Z,7.40
2018-07-03T19:49:20.030Z,7.40
2018-07-03T19:51:48.335Z,7.00
2018-07-03T19:54:17.607Z,6.80
2018-07-03T19:56:45.393Z,7.00
2018-07-03T19:59:13.620Z,6.40
2018-07-03T20:01:42.042Z,6.40
2018-07-03T20:04:10.847Z,7.80
2018-07-03T20:06:40.325Z,5.00
2018-07-03T20:09:08.379Z,5.80
2018-07-03T20:11:36.212Z,6.20
2018-07-03T20:14:04.409Z,7.00
2018-07-03T20:16:32.204Z,6.40
2018-07-03T20:19:02.767Z,6.60
2018-07-03T20:21:31.767Z,7.60
2018-07-03T20:23:59.909Z,8.40
2018-07-03T20:26:27.700Z,7.40
2018-07-03T20:28:56.775Z,6.60
2018-07-03T20:31:24.628Z,6.20
2018-07-03T20:33:55.031Z,8.60
2018-07-03T20:36:23.266Z,9.00
2018-07-03T20:38:52.136Z,8.20
2018-07-03T20:41:20.589Z,10.20
2018-07-03T20:43:48.870Z,9.00
2018-07-03T20:46:17.598Z,9.40
2018-07-03T20:48:48.545Z,7.00
2018-07-03T20:51:17.657Z,8.00
2018-07-03T20:53:45.846Z,8.00
2018-07-03T20:56:16.624Z,6.80
2018-07-03T20:58:45.787Z,6.00
2018-07-03T21:01:14.526Z,7.60
2018-07-03T21:03:44.043Z,5.40
2018-07-03T21:06:12.892Z,9.40
2018-07-03T21:08:41.496Z,6.80
2018-07-03T21:11:09.346Z,6.00
2018-07-03T21:13:37.589Z,4.00
2018-07-03T21:16:05.411Z,6.60
2018-07-03T21:18:33.414Z,4.40
2018-07-03T21:21:01.604Z,4.00
2018-07-03T21:23:30.349Z,6.00
2018-07-03T21:25:58.722Z,7.00
2018-07-03T21:28:29.385Z,4.80
2018-07-03T21:30:58.043Z,4.20
2018-07-03T21:33:26.464Z,6.00
2018-07-03T21:35:57.115Z,4.40
2018-07-03T21:38:25.641Z,5.60
2018-07-03T21:40:54.116Z,6.20
2018-07-03T21:43:22.362Z,5.20
2018-07-03T21:45:50.164Z,6.00
2018-07-03T21:48:19.915Z,7.00
2018-07-03T21:50:48.855Z,6.80
2018-07-03T21:53:16.646Z,5.60
2018-07-03T21:55:44.428Z,5.40
2018-07-03T21:58:12.216Z,6.00
2018-07-03T22:00:44.915Z,6.60
2018-07-03T22:03:15.233Z,5.00
2018-07-03T22:05:43.868Z,7.00
2018-07-03T22:08:11.780Z,5.80
2018-07-03T22:10:40.937Z,6.00
2018-07-03T22:13:08.721Z,5.00
2018-07-03T22:15:36.494Z,4.60
2018-07-03T22:18:04.741Z,6.00
2018-07-03T22:20:32.534Z,5.00
2018-07-03T22:23:00.366Z,5.60
2018-07-03T22:25:28.528Z,3.00
2018-07-03T22:27:56.617Z,6.00
2018-07-03T22:30:24.989Z,6.80
2018-07-03T22:32:53.222Z,6.80
2018-07-03T22:35:20.992Z,6.60
2018-07-03T22:37:48.766Z,3.00
2018-07-03T22:40:19.688Z,6.00
2018-07-03T22:42:48.437Z,6.00
2018-07-03T22:45:16.756Z,6.00
2018-07-03T22:47:44.660Z,6.00
2018-07-03T22:50:13.804Z,5.80
2018-07-03T22:52:42.784Z,6.00
2018-07-03T22:55:10.857Z,7.20
2018-07-03T22:57:39.200Z,5.80
2018-07-03T23:00:07.229Z,6.00
2018-07-03T23:02:34.987Z,7.20
2018-07-03T23:05:03.183Z,8.60
2018-07-03T23:07:30.969Z,5.40
2018-07-03T23:09:58.736Z,6.00
2018-07-03T23:12:27.188Z,6.80
2018-07-03T23:14:55.452Z,7.20
2018-07-03T23:17:23.215Z,6.60
2018-07-03T23:19:51.910Z,6.00
2018-07-03T23:22:21.454Z,8.80
2018-07-03T23:24:49.228Z,4.80
2018-07-03T23:27:17.628Z,4.00
2018-07-03T23:29:46.541Z,5.80
2018-07-03T23:32:15.105Z,6.00
2018-07-03T23:34:43.060Z,5.00
2018-07-03T23:37:11.237Z,6.00
2018-07-03T23:39:39.464Z,4.20
2018-07-03T23:42:07.332Z,4.00
2018-07-03T23:44:35.240Z,7.40
2018-07-03T23:47:04.651Z,5.00
2018-07-03T23:49:32.758Z,4.40
2018-07-03T23:52:00.929Z,5.20
2018-07-03T23:54:28.676Z,5.80
2018-07-03T23:56:57.535Z,5.00
2018-07-03T23:59:26.297Z,5.20
